sensor_id;sensor_type;location;lat;lon;timestamp;pressure;altitude;pressure_sealevel;temperature;humidity
50364;BME280;36272;59.400;17.982;2023-05-07T00:02:57;102854.38;;;3.12;58.05
50364;BME280;36272;59.400;17.982;2023-05-07T00:08:02;102845.72;;;2.98;58.68
50364;BME280;36272;59.400;17.982;2023-05-07T00:13:03;102842.34;;;2.96;58.41
50364;BME280;36272;59.400;17.982;2023-05-07T00:18:05;102847.16;;;2.91;58.25
50364;BME280;36272;59.400;17.982;2023-05-07T00:23:07;102852.94;;;2.85;58.24
50364;BME280;36272;59.400;17.982;2023-05-07T00:28:09;102846.44;;;2.78;58.40
50364;BME280;36272;59.400;17.982;2023-05-07T00:33:10;102845.22;;;2.71;58.45
50364;BME280;36272;59.400;17.982;2023-05-07T00:38:12;102852.66;;;2.65;58.45
50364;BME280;36272;59.400;17.982;2023-05-07T00:43:14;102847.00;;;2.59;58.69
50364;BME280;36272;59.400;17.982;2023-05-07T00:48:16;102847.56;;;2.51;58.92
50364;BME280;36272;59.400;17.982;2023-05-07T00:53:18;102845.41;;;2.45;59.05
50364;BME280;36272;59.400;17.982;2023-05-07T00:58:21;102840.59;;;2.38;59.12
50364;BME280;36272;59.400;17.982;2023-05-07T01:03:22;102841.88;;;2.33;59.19
50364;BME280;36272;59.400;17.982;2023-05-07T01:08:24;102845.94;;;2.26;59.38
50364;BME280;36272;59.400;17.982;2023-05-07T01:13:29;102842.09;;;2.18;59.41
50364;BME280;36272;59.400;17.982;2023-05-07T01:18:31;102844.34;;;2.12;59.58
50364;BME280;36272;59.400;17.982;2023-05-07T01:23:33;102845.88;;;2.03;59.82
50364;BME280;36272;59.400;17.982;2023-05-07T01:28:35;102855.41;;;1.92;59.97
50364;BME280;36272;59.400;17.982;2023-05-07T01:33:37;102851.31;;;1.88;60.19
50364;BME280;36272;59.400;17.982;2023-05-07T01:38:41;102845.44;;;1.85;60.22
50364;BME280;36272;59.400;17.982;2023-05-07T01:43:43;102848.28;;;1.82;60.07
50364;BME280;36272;59.400;17.982;2023-05-07T01:48:45;102860.75;;;1.80;60.22
50364;BME280;36272;59.400;17.982;2023-05-07T01:53:47;102867.31;;;1.74;60.38
50364;BME280;36272;59.400;17.982;2023-05-07T01:58:52;102873.78;;;1.70;60.37
50364;BME280;36272;59.400;17.982;2023-05-07T02:03:53;102864.47;;;1.64;60.40
50364;BME280;36272;59.400;17.982;2023-05-07T02:08:55;102873.56;;;1.60;60.67
50364;BME280;36272;59.400;17.982;2023-05-07T02:13:57;102869.47;;;1.56;60.49
50364;BME280;36272;59.400;17.982;2023-05-07T02:18:59;102868.84;;;1.52;60.69
50364;BME280;36272;59.400;17.982;2023-05-07T02:24:03;102878.06;;;1.46;60.66
50364;BME280;36272;59.400;17.982;2023-05-07T02:29:05;102876.69;;;1.41;60.94
50364;BME280;36272;59.400;17.982;2023-05-07T02:34:07;102875.19;;;1.37;61.43
50364;BME280;36272;59.400;17.982;2023-05-07T02:39:08;102875.53;;;1.32;61.24
50364;BME280;36272;59.400;17.982;2023-05-07T02:44:10;102884.53;;;1.29;61.51
50364;BME280;36272;59.400;17.982;2023-05-07T02:49:12;102880.28;;;1.27;61.72
50364;BME280;36272;59.400;17.982;2023-05-07T02:54:13;102885.56;;;1.27;61.79
50364;BME280;36272;59.400;17.982;2023-05-07T02:59:15;102881.38;;;1.24;61.97
50364;BME280;36272;59.400;17.982;2023-05-07T03:04:17;102884.09;;;1.23;62.05
50364;BME280;36272;59.400;17.982;2023-05-07T03:09:18;102887.69;;;1.22;62.07
50364;BME280;36272;59.400;17.982;2023-05-07T03:14:20;102886.00;;;1.21;62.04
50364;BME280;36272;59.400;17.982;2023-05-07T03:19:22;102877.13;;;1.22;61.99
50364;BME280;36272;59.400;17.982;2023-05-07T03:24:24;102878.81;;;1.23;62.14
50364;BME280;36272;59.400;17.982;2023-05-07T03:29:25;102882.19;;;1.25;62.27
50364;BME280;36272;59.400;17.982;2023-05-07T03:34:27;102881.97;;;1.28;62.32
50364;BME280;36272;59.400;17.982;2023-05-07T03:39:29;102897.59;;;1.31;62.43
50364;BME280;36272;59.400;17.982;2023-05-07T03:44:30;102900.13;;;1.32;62.73
50364;BME280;36272;59.400;17.982;2023-05-07T03:49:32;102895.34;;;1.38;62.35
50364;BME280;36272;59.400;17.982;2023-05-07T03:54:33;102897.56;;;1.44;62.69
50364;BME280;36272;59.400;17.982;2023-05-07T03:59:35;102899.69;;;1.52;62.69
50364;BME280;36272;59.400;17.982;2023-05-07T04:04:37;102893.94;;;1.58;62.77
50364;BME280;36272;59.400;17.982;2023-05-07T04:09:38;102909.34;;;1.64;62.82
50364;BME280;36272;59.400;17.982;2023-05-07T04:14:40;102900.03;;;1.71;63.25
50364;BME280;36272;59.400;17.982;2023-05-07T04:19:42;102909.00;;;1.82;63.22
50364;BME280;36272;59.400;17.982;2023-05-07T04:24:46;102910.97;;;1.91;63.37
50364;BME280;36272;59.400;17.982;2023-05-07T04:29:48;102913.66;;;2.02;63.70
50364;BME280;36272;59.400;17.982;2023-05-07T04:34:52;102898.00;;;2.12;64.25
50364;BME280;36272;59.400;17.982;2023-05-07T04:39:54;102911.13;;;2.25;64.60
50364;BME280;36272;59.400;17.982;2023-05-07T04:44:56;102918.03;;;2.39;65.01
50364;BME280;36272;59.400;17.982;2023-05-07T04:49:58;102911.50;;;2.56;65.15
50364;BME280;36272;59.400;17.982;2023-05-07T04:54:59;102919.09;;;2.72;65.38
50364;BME280;36272;59.400;17.982;2023-05-07T05:00:02;102926.47;;;2.91;65.86
50364;BME280;36272;59.400;17.982;2023-05-07T05:05:06;102924.22;;;3.09;66.05
50364;BME280;36272;59.400;17.982;2023-05-07T05:10:07;102927.03;;;3.31;65.92
50364;BME280;36272;59.400;17.982;2023-05-07T05:15:11;102925.56;;;3.49;65.92
50364;BME280;36272;59.400;17.982;2023-05-07T05:20:13;102929.41;;;3.68;65.75
50364;BME280;36272;59.400;17.982;2023-05-07T05:25:15;102934.81;;;3.78;66.07
50364;BME280;36272;59.400;17.982;2023-05-07T05:30:17;102937.78;;;3.96;65.90
50364;BME280;36272;59.400;17.982;2023-05-07T05:35:18;102936.88;;;4.18;65.80
50364;BME280;36272;59.400;17.982;2023-05-07T05:40:20;102936.72;;;4.31;65.76
50364;BME280;36272;59.400;17.982;2023-05-07T05:45:22;102933.78;;;4.45;65.58
50364;BME280;36272;59.400;17.982;2023-05-07T05:50:23;102935.22;;;4.71;65.24
50364;BME280;36272;59.400;17.982;2023-05-07T05:55:26;102928.75;;;4.85;64.78
50364;BME280;36272;59.400;17.982;2023-05-07T06:00:28;102937.91;;;5.02;64.31
50364;BME280;36272;59.400;17.982;2023-05-07T06:05:33;102943.47;;;5.20;64.17
50364;BME280;36272;59.400;17.982;2023-05-07T06:10:37;102943.69;;;5.38;63.77
50364;BME280;36272;59.400;17.982;2023-05-07T06:15:39;102942.63;;;5.50;63.38
50364;BME280;36272;59.400;17.982;2023-05-07T06:20:40;102942.53;;;5.62;62.83
50364;BME280;36272;59.400;17.982;2023-05-07T06:25:43;102950.81;;;5.78;62.84
50364;BME280;36272;59.400;17.982;2023-05-07T06:30:47;102957.31;;;5.95;62.00
50364;BME280;36272;59.400;17.982;2023-05-07T06:35:51;102949.38;;;6.05;61.61
50364;BME280;36272;59.400;17.982;2023-05-07T06:41:13;102940.16;;;6.19;61.91
50364;BME280;36272;59.400;17.982;2023-05-07T06:46:17;102918.06;;;6.29;61.42
50364;BME280;36272;59.400;17.982;2023-05-07T06:51:19;102945.06;;;6.44;61.07
50364;BME280;36272;59.400;17.982;2023-05-07T06:56:20;102942.13;;;6.57;60.77
50364;BME280;36272;59.400;17.982;2023-05-07T07:01:22;102950.09;;;6.66;60.59
50364;BME280;36272;59.400;17.982;2023-05-07T07:06:26;102941.84;;;6.79;59.81
50364;BME280;36272;59.400;17.982;2023-05-07T07:11:28;102948.09;;;6.88;59.81
50364;BME280;36272;59.400;17.982;2023-05-07T07:16:36;102920.50;;;6.99;60.15
50364;BME280;36272;59.400;17.982;2023-05-07T07:21:37;102943.00;;;7.14;59.69
50364;BME280;36272;59.400;17.982;2023-05-07T07:26:39;102940.72;;;7.29;59.00
50364;BME280;36272;59.400;17.982;2023-05-07T07:31:41;102934.34;;;7.40;58.71
50364;BME280;36272;59.400;17.982;2023-05-07T07:36:43;102934.00;;;7.53;57.85
50364;BME280;36272;59.400;17.982;2023-05-07T07:41:44;102929.19;;;7.67;57.60
50364;BME280;36272;59.400;17.982;2023-05-07T07:46:46;102939.47;;;7.80;57.17
50364;BME280;36272;59.400;17.982;2023-05-07T07:51:48;102916.16;;;7.92;56.83
50364;BME280;36272;59.400;17.982;2023-05-07T07:56:49;102924.22;;;8.00;56.53
50364;BME280;36272;59.400;17.982;2023-05-07T08:01:51;102918.84;;;8.10;55.89
50364;BME280;36272;59.400;17.982;2023-05-07T08:06:54;102922.63;;;8.25;55.17
50364;BME280;36272;59.400;17.982;2023-05-07T08:11:57;102915.69;;;8.32;54.63
50364;BME280;36272;59.400;17.982;2023-05-07T08:16:59;102905.78;;;8.43;54.31
50364;BME280;36272;59.400;17.982;2023-05-07T08:22:00;102908.94;;;8.56;54.08
50364;BME280;36272;59.400;17.982;2023-05-07T08:27:02;102906.66;;;8.70;53.78
50364;BME280;36272;59.400;17.982;2023-05-07T08:32:04;102911.44;;;8.84;52.92
50364;BME280;36272;59.400;17.982;2023-05-07T08:37:05;102911.19;;;8.96;52.35
50364;BME280;36272;59.400;17.982;2023-05-07T08:42:09;102897.91;;;9.12;52.43
50364;BME280;36272;59.400;17.982;2023-05-07T08:47:11;102906.81;;;9.21;51.72
50364;BME280;36272;59.400;17.982;2023-05-07T08:52:12;102904.69;;;9.33;51.08
50364;BME280;36272;59.400;17.982;2023-05-07T08:57:14;102899.91;;;9.45;50.60
50364;BME280;36272;59.400;17.982;2023-05-07T09:02:16;102899.63;;;9.56;50.23
50364;BME280;36272;59.400;17.982;2023-05-07T09:07:20;102887.78;;;9.67;49.95
50364;BME280;36272;59.400;17.982;2023-05-07T09:12:21;102891.16;;;9.77;50.04
50364;BME280;36272;59.400;17.982;2023-05-07T09:17:23;102884.81;;;9.87;49.72
50364;BME280;36272;59.400;17.982;2023-05-07T09:22:25;102865.78;;;9.98;49.48
50364;BME280;36272;59.400;17.982;2023-05-07T09:27:27;102880.50;;;10.10;49.40
50364;BME280;36272;59.400;17.982;2023-05-07T09:32:29;102868.97;;;10.26;49.54
50364;BME280;36272;59.400;17.982;2023-05-07T09:37:32;102860.97;;;10.43;49.12
50364;BME280;36272;59.400;17.982;2023-05-07T09:42:34;102872.31;;;10.62;48.44
50364;BME280;36272;59.400;17.982;2023-05-07T09:47:39;102854.22;;;10.80;48.38
50364;BME280;36272;59.400;17.982;2023-05-07T09:52:57;102856.66;;;10.98;47.91
50364;BME280;36272;59.400;17.982;2023-05-07T09:58:00;102865.31;;;11.17;47.54
50364;BME280;36272;59.400;17.982;2023-05-07T10:03:04;102855.34;;;11.34;46.92
50364;BME280;36272;59.400;17.982;2023-05-07T10:08:07;102854.97;;;11.45;46.63
50364;BME280;36272;59.400;17.982;2023-05-07T10:13:10;102863.25;;;11.59;47.08
50364;BME280;36272;59.400;17.982;2023-05-07T10:18:13;102846.22;;;11.75;46.11
50364;BME280;36272;59.400;17.982;2023-05-07T10:23:19;102833.38;;;11.94;45.96
50364;BME280;36272;59.400;17.982;2023-05-07T10:28:23;102831.34;;;12.19;45.86
50364;BME280;36272;59.400;17.982;2023-05-07T10:33:29;102828.31;;;12.37;45.43
50364;BME280;36272;59.400;17.982;2023-05-07T10:38:34;102838.16;;;12.60;45.61
50364;BME280;36272;59.400;17.982;2023-05-07T10:43:43;102815.75;;;12.83;44.66
50364;BME280;36272;59.400;17.982;2023-05-07T11:04:29;102824.59;;;14.08;43.20
50364;BME280;36272;59.400;17.982;2023-05-07T11:09:54;102826.63;;;16.48;40.55
50364;BME280;36272;59.400;17.982;2023-05-07T11:14:59;102821.13;;;19.89;37.17
50364;BME280;36272;59.400;17.982;2023-05-07T11:20:04;102814.72;;;22.62;34.10
50364;BME280;36272;59.400;17.982;2023-05-07T11:25:06;102810.84;;;24.38;32.63
50364;BME280;36272;59.400;17.982;2023-05-07T11:30:09;102801.00;;;26.04;31.15
50364;BME280;36272;59.400;17.982;2023-05-07T11:35:10;102824.13;;;26.63;30.59
50364;BME280;36272;59.400;17.982;2023-05-07T11:40:12;102807.19;;;27.75;30.16
50364;BME280;36272;59.400;17.982;2023-05-07T11:45:23;102783.00;;;28.70;28.73
50364;BME280;36272;59.400;17.982;2023-05-07T11:50:25;102809.25;;;28.38;28.73
50364;BME280;36272;59.400;17.982;2023-05-07T11:55:27;102795.31;;;28.53;28.67
50364;BME280;36272;59.400;17.982;2023-05-07T12:00:29;102792.66;;;28.67;28.07
50364;BME280;36272;59.400;17.982;2023-05-07T12:05:31;102792.72;;;29.38;27.29
50364;BME280;36272;59.400;17.982;2023-05-07T12:10:32;102795.63;;;29.28;27.26
50364;BME280;36272;59.400;17.982;2023-05-07T12:15:35;102776.72;;;29.21;26.77
50364;BME280;36272;59.400;17.982;2023-05-07T12:20:37;102779.28;;;29.51;26.38
50364;BME280;36272;59.400;17.982;2023-05-07T12:25:40;102771.09;;;30.07;25.96
50364;BME280;36272;59.400;17.982;2023-05-07T12:30:46;102768.09;;;31.05;25.17
50364;BME280;36272;59.400;17.982;2023-05-07T12:35:48;102786.13;;;31.02;24.97
50364;BME280;36272;59.400;17.982;2023-05-07T12:40:54;102766.16;;;30.32;24.60
50364;BME280;36272;59.400;17.982;2023-05-07T12:46:06;102771.00;;;30.77;24.68
50364;BME280;36272;59.400;17.982;2023-05-07T12:51:09;102780.44;;;31.84;23.73
50364;BME280;36272;59.400;17.982;2023-05-07T12:56:15;102762.56;;;32.40;23.47
50364;BME280;36272;59.400;17.982;2023-05-07T13:01:17;102771.38;;;32.86;23.04
50364;BME280;36272;59.400;17.982;2023-05-07T13:06:20;102768.34;;;33.53;22.75
50364;BME280;36272;59.400;17.982;2023-05-07T13:11:22;102759.44;;;33.20;22.91
50364;BME280;36272;59.400;17.982;2023-05-07T13:16:24;102759.09;;;33.40;22.94
50364;BME280;36272;59.400;17.982;2023-05-07T13:21:26;102756.13;;;33.36;22.76
50364;BME280;36272;59.400;17.982;2023-05-07T13:26:30;102752.00;;;33.60;23.08
50364;BME280;36272;59.400;17.982;2023-05-07T13:31:32;102770.50;;;33.29;23.01
50364;BME280;36272;59.400;17.982;2023-05-07T13:36:35;102760.84;;;33.44;23.08
50364;BME280;36272;59.400;17.982;2023-05-07T13:41:38;102747.59;;;33.59;22.98
50364;BME280;36272;59.400;17.982;2023-05-07T13:46:40;102760.06;;;33.44;23.32
50364;BME280;36272;59.400;17.982;2023-05-07T13:51:41;102763.22;;;33.07;23.04
50364;BME280;36272;59.400;17.982;2023-05-07T13:56:43;102749.75;;;33.53;23.04
50364;BME280;36272;59.400;17.982;2023-05-07T14:01:45;102752.72;;;33.48;23.06
50364;BME280;36272;59.400;17.982;2023-05-07T14:06:46;102745.00;;;33.54;22.94
50364;BME280;36272;59.400;17.982;2023-05-07T14:11:48;102742.13;;;33.80;22.60
50364;BME280;36272;59.400;17.982;2023-05-07T14:16:52;102752.38;;;33.79;22.93
50364;BME280;36272;59.400;17.982;2023-05-07T14:21:54;102741.41;;;33.62;23.13
50364;BME280;36272;59.400;17.982;2023-05-07T14:26:56;102737.88;;;33.35;22.68
50364;BME280;36272;59.400;17.982;2023-05-07T14:32:04;102712.72;;;32.92;23.20
50364;BME280;36272;59.400;17.982;2023-05-07T14:37:06;102729.31;;;33.10;22.95
50364;BME280;36272;59.400;17.982;2023-05-07T14:42:08;102729.53;;;32.87;22.79
50364;BME280;36272;59.400;17.982;2023-05-07T14:47:10;102728.81;;;32.20;23.13
50364;BME280;36272;59.400;17.982;2023-05-07T14:52:11;102712.50;;;31.92;23.37
50364;BME280;36272;59.400;17.982;2023-05-07T14:57:13;102701.13;;;31.22;23.67
50364;BME280;36272;59.400;17.982;2023-05-07T15:02:17;102716.34;;;30.00;24.59
50364;BME280;36272;59.400;17.982;2023-05-07T15:07:19;102716.63;;;28.71;24.96
50364;BME280;36272;59.400;17.982;2023-05-07T15:12:21;102719.09;;;27.86;25.45
50364;BME280;36272;59.400;17.982;2023-05-07T15:17:22;102722.63;;;27.03;26.38
50364;BME280;36272;59.400;17.982;2023-05-07T15:22:24;102716.81;;;26.09;26.66
50364;BME280;36272;59.400;17.982;2023-05-07T15:27:26;102704.91;;;25.02;27.45
50364;BME280;36272;59.400;17.982;2023-05-07T15:32:27;102700.97;;;24.46;27.84
50364;BME280;36272;59.400;17.982;2023-05-07T15:37:30;102695.47;;;23.77;28.09
50364;BME280;36272;59.400;17.982;2023-05-07T15:42:33;102708.78;;;23.30;28.13
50364;BME280;36272;59.400;17.982;2023-05-07T15:47:34;102711.03;;;22.79;28.60
50364;BME280;36272;59.400;17.982;2023-05-07T15:52:36;102713.72;;;22.29;29.50
50364;BME280;36272;59.400;17.982;2023-05-07T15:57:39;102713.00;;;21.60;29.84
50364;BME280;36272;59.400;17.982;2023-05-07T16:02:46;102709.09;;;20.88;30.40
50364;BME280;36272;59.400;17.982;2023-05-07T16:07:49;102710.22;;;20.34;30.94
50364;BME280;36272;59.400;17.982;2023-05-07T16:12:51;102719.31;;;19.80;31.00
50364;BME280;36272;59.400;17.982;2023-05-07T16:17:52;102724.44;;;19.22;31.71
50364;BME280;36272;59.400;17.982;2023-05-07T16:22:58;102704.81;;;18.96;31.92
50364;BME280;36272;59.400;17.982;2023-05-07T16:28:02;102698.09;;;18.68;32.17
50364;BME280;36272;59.400;17.982;2023-05-07T16:33:06;102704.56;;;18.49;32.47
50364;BME280;36272;59.400;17.982;2023-05-07T16:38:37;102698.06;;;17.94;32.93
50364;BME280;36272;59.400;17.982;2023-05-07T16:43:39;102730.47;;;17.57;33.50
50364;BME280;36272;59.400;17.982;2023-05-07T16:48:58;102711.47;;;17.06;33.98
50364;BME280;36272;59.400;17.982;2023-05-07T16:54:00;102729.66;;;16.85;34.07
50364;BME280;36272;59.400;17.982;2023-05-07T16:59:02;102724.78;;;16.62;34.49
50364;BME280;36272;59.400;17.982;2023-05-07T17:04:04;102713.66;;;16.31;35.22
50364;BME280;36272;59.400;17.982;2023-05-07T17:09:05;102720.78;;;15.99;35.44
50364;BME280;36272;59.400;17.982;2023-05-07T17:14:07;102723.28;;;15.73;35.90
50364;BME280;36272;59.400;17.982;2023-05-07T17:19:11;102730.31;;;15.54;36.25
50364;BME280;36272;59.400;17.982;2023-05-07T17:24:13;102735.91;;;15.39;36.44
50364;BME280;36272;59.400;17.982;2023-05-07T17:29:14;102739.38;;;15.06;36.81
50364;BME280;36272;59.400;17.982;2023-05-07T17:34:16;102745.50;;;14.80;37.45
50364;BME280;36272;59.400;17.982;2023-05-07T17:39:18;102750.31;;;14.49;37.69
50364;BME280;36272;59.400;17.982;2023-05-07T17:44:19;102747.47;;;14.22;37.94
50364;BME280;36272;59.400;17.982;2023-05-07T17:49:21;102754.78;;;14.00;38.56
50364;BME280;36272;59.400;17.982;2023-05-07T17:54:23;102751.66;;;13.75;38.93
50364;BME280;36272;59.400;17.982;2023-05-07T17:59:27;102746.94;;;13.55;39.01
50364;BME280;36272;59.400;17.982;2023-05-07T18:04:29;102754.41;;;13.38;39.55
50364;BME280;36272;59.400;17.982;2023-05-07T18:09:30;102756.31;;;13.22;40.03
50364;BME280;36272;59.400;17.982;2023-05-07T18:14:32;102751.22;;;13.13;40.06
50364;BME280;36272;59.400;17.982;2023-05-07T18:19:34;102765.56;;;12.98;40.37
50364;BME280;36272;59.400;17.982;2023-05-07T18:24:35;102773.06;;;12.88;40.06
50364;BME280;36272;59.400;17.982;2023-05-07T18:29:37;102768.81;;;12.78;40.31
50364;BME280;36272;59.400;17.982;2023-05-07T18:34:38;102775.88;;;12.64;40.71
50364;BME280;36272;59.400;17.982;2023-05-07T18:39:40;102770.50;;;12.49;40.91
50364;BME280;36272;59.400;17.982;2023-05-07T18:44:43;102782.06;;;12.35;41.12
50364;BME280;36272;59.400;17.982;2023-05-07T18:49:45;102779.72;;;12.17;41.24
50364;BME280;36272;59.400;17.982;2023-05-07T18:54:47;102777.66;;;12.04;41.56
50364;BME280;36272;59.400;17.982;2023-05-07T18:59:51;102763.72;;;11.85;41.68
50364;BME280;36272;59.400;17.982;2023-05-07T19:04:53;102789.75;;;11.77;42.15
50364;BME280;36272;59.400;17.982;2023-05-07T19:09:55;102788.50;;;11.64;42.32
50364;BME280;36272;59.400;17.982;2023-05-07T19:14:56;102797.50;;;11.48;42.77
50364;BME280;36272;59.400;17.982;2023-05-07T19:20:01;102787.72;;;11.32;43.18
50364;BME280;36272;59.400;17.982;2023-05-07T19:25:05;102794.47;;;11.20;43.19
50364;BME280;36272;59.400;17.982;2023-05-07T19:30:07;102790.84;;;11.04;43.68
50364;BME280;36272;59.400;17.982;2023-05-07T19:35:09;102809.81;;;10.94;43.94
50364;BME280;36272;59.400;17.982;2023-05-07T19:40:11;102799.00;;;10.79;44.22
50364;BME280;36272;59.400;17.982;2023-05-07T19:45:15;102786.31;;;10.65;44.90
50364;BME280;36272;59.400;17.982;2023-05-07T19:50:20;102806.94;;;10.56;44.76
50364;BME280;36272;59.400;17.982;2023-05-07T19:55:22;102803.94;;;10.43;45.05
50364;BME280;36272;59.400;17.982;2023-05-07T20:00:24;102799.94;;;10.30;45.46
50364;BME280;36272;59.400;17.982;2023-05-07T20:05:32;102795.94;;;10.18;46.11
50364;BME280;36272;59.400;17.982;2023-05-07T20:10:34;102802.63;;;10.05;46.29
50364;BME280;36272;59.400;17.982;2023-05-07T20:15:36;102788.09;;;10.00;46.55
50364;BME280;36272;59.400;17.982;2023-05-07T20:20:38;102800.97;;;9.88;46.95
50364;BME280;36272;59.400;17.982;2023-05-07T20:25:40;102805.31;;;9.80;46.94
50364;BME280;36272;59.400;17.982;2023-05-07T20:30:43;102809.78;;;9.72;47.37
50364;BME280;36272;59.400;17.982;2023-05-07T20:35:45;102811.78;;;9.61;47.35
50364;BME280;36272;59.400;17.982;2023-05-07T20:40:47;102820.94;;;9.50;47.82
50364;BME280;36272;59.400;17.982;2023-05-07T20:45:58;102803.56;;;9.38;48.35
50364;BME280;36272;59.400;17.982;2023-05-07T20:51:00;102804.53;;;9.29;48.37
50364;BME280;36272;59.400;17.982;2023-05-07T20:56:03;102795.81;;;9.18;48.66
50364;BME280;36272;59.400;17.982;2023-05-07T21:01:05;102822.34;;;9.12;48.80
50364;BME280;36272;59.400;17.982;2023-05-07T21:06:07;102819.94;;;9.00;48.96
50364;BME280;36272;59.400;17.982;2023-05-07T21:11:08;102820.06;;;8.90;49.10
50364;BME280;36272;59.400;17.982;2023-05-07T21:16:10;102828.03;;;8.82;49.22
50364;BME280;36272;59.400;17.982;2023-05-07T21:21:12;102821.97;;;8.72;49.36
50364;BME280;36272;59.400;17.982;2023-05-07T21:26:17;102808.94;;;8.60;49.76
50364;BME280;36272;59.400;17.982;2023-05-07T21:31:19;102822.19;;;8.52;49.89
50364;BME280;36272;59.400;17.982;2023-05-07T21:36:21;102838.25;;;8.42;49.87
50364;BME280;36272;59.400;17.982;2023-05-07T21:41:23;102830.22;;;8.34;50.02
50364;BME280;36272;59.400;17.982;2023-05-07T21:46:25;102831.16;;;8.25;50.05
50364;BME280;36272;59.400;17.982;2023-05-07T21:51:27;102829.22;;;8.17;50.09
50364;BME280;36272;59.400;17.982;2023-05-07T21:56:28;102831.00;;;8.08;50.28
50364;BME280;36272;59.400;17.982;2023-05-07T22:01:30;102819.44;;;7.99;50.46
50364;BME280;36272;59.400;17.982;2023-05-07T22:06:32;102831.69;;;7.92;50.60
50364;BME280;36272;59.400;17.982;2023-05-07T22:11:33;102833.28;;;7.85;50.47
50364;BME280;36272;59.400;17.982;2023-05-07T22:16:35;102826.91;;;7.78;50.86
50364;BME280;36272;59.400;17.982;2023-05-07T22:21:36;102827.38;;;7.73;51.00
50364;BME280;36272;59.400;17.982;2023-05-07T22:26:38;102828.94;;;7.66;51.10
50364;BME280;36272;59.400;17.982;2023-05-07T22:31:40;102829.72;;;7.58;51.37
50364;BME280;36272;59.400;17.982;2023-05-07T22:36:42;102821.63;;;7.50;51.45
50364;BME280;36272;59.400;17.982;2023-05-07T22:41:43;102814.25;;;7.43;51.69
50364;BME280;36272;59.400;17.982;2023-05-07T22:46:45;102815.81;;;7.36;52.25
50364;BME280;36272;59.400;17.982;2023-05-07T22:51:47;102816.41;;;7.30;52.28
50364;BME280;36272;59.400;17.982;2023-05-07T22:56:48;102816.34;;;7.22;52.69
50364;BME280;36272;59.400;17.982;2023-05-07T23:01:50;102806.13;;;7.17;53.07
50364;BME280;36272;59.400;17.982;2023-05-07T23:06:52;102826.03;;;7.13;53.42
50364;BME280;36272;59.400;17.982;2023-05-07T23:11:54;102822.16;;;7.07;53.50
50364;BME280;36272;59.400;17.982;2023-05-07T23:16:55;102814.75;;;7.01;53.81
50364;BME280;36272;59.400;17.982;2023-05-07T23:21:57;102808.19;;;6.95;54.03
50364;BME280;36272;59.400;17.982;2023-05-07T23:27:00;102808.50;;;6.92;54.62
50364;BME280;36272;59.400;17.982;2023-05-07T23:32:03;102806.25;;;6.88;54.82
50364;BME280;36272;59.400;17.982;2023-05-07T23:37:07;102791.72;;;6.82;55.07
50364;BME280;36272;59.400;17.982;2023-05-07T23:42:09;102811.50;;;6.79;55.30
50364;BME280;36272;59.400;17.982;2023-05-07T23:47:11;102805.75;;;6.74;55.39
50364;BME280;36272;59.400;17.982;2023-05-07T23:52:12;102801.72;;;6.70;55.69
50364;BME280;36272;59.400;17.982;2023-05-07T23:57:14;102801.31;;;6.65;55.96
